Map

Track Data

SID SEASON NUMBER BASIN SUBBASIN NAME ISO_TIME NATURE LAT LON WMO_WIND WMO_PRES WMO_AGENCY TRACK_TYPE DIST2LAND LANDFALL IFLAG USA_AGENCY USA_ATCF_ID USA_LAT USA_LON USA_RECORD USA_STATUS USA_WIND USA_PRES USA_SSHS USA_R34_NE USA_R34_SE USA_R34_SW USA_R34_NW USA_R50_NE USA_R50_SE USA_R50_SW USA_R50_NW USA_R64_NE USA_R64_SE USA_R64_SW USA_R64_NW USA_POCI USA_ROCI USA_RMW USA_EYE TOKYO_LAT TOKYO_LON TOKYO_GRADE TOKYO_WIND TOKYO_PRES TOKYO_R50_DIR TOKYO_R50_LONG TOKYO_R50_SHORT TOKYO_R30_DIR TOKYO_R30_LONG TOKYO_R30_SHORT TOKYO_LAND CMA_LAT CMA_LON CMA_CAT CMA_WIND CMA_PRES HKO_LAT HKO_LON HKO_CAT HKO_WIND HKO_PRES NEWDELHI_LAT NEWDELHI_LON NEWDELHI_GRADE NEWDELHI_WIND NEWDELHI_PRES NEWDELHI_CI NEWDELHI_DP NEWDELHI_POCI REUNION_LAT REUNION_LON REUNION_TYPE REUNION_WIND REUNION_PRES REUNION_TNUM REUNION_CI REUNION_RMW REUNION_R34_NE REUNION_R34_SE REUNION_R34_SW REUNION_R34_NW REUNION_R50_NE REUNION_R50_SE REUNION_R50_SW REUNION_R50_NW REUNION_R64_NE REUNION_R64_SE REUNION_R64_SW REUNION_R64_NW BOM_LAT BOM_LON BOM_TYPE BOM_WIND BOM_PRES BOM_TNUM BOM_CI BOM_RMW BOM_R34_NE BOM_R34_SE BOM_R34_SW BOM_R34_NW BOM_R50_NE BOM_R50_SE BOM_R50_SW BOM_R50_NW BOM_R64_NE BOM_R64_SE BOM_R64_SW BOM_R64_NW BOM_ROCI BOM_POCI BOM_EYE BOM_POS_METHOD BOM_PRES_METHOD NADI_LAT NADI_LON NADI_CAT NADI_WIND NADI_PRES WELLINGTON_LAT WELLINGTON_LON WELLINGTON_WIND WELLINGTON_PRES DS824_LAT DS824_LON DS824_STAGE DS824_WIND DS824_PRES TD9636_LAT TD9636_LON TD9636_STAGE TD9636_WIND TD9636_PRES TD9635_LAT TD9635_LON TD9635_WIND TD9635_PRES TD9635_ROCI NEUMANN_LAT NEUMANN_LON NEUMANN_CLASS NEUMANN_WIND NEUMANN_PRES MLC_LAT MLC_LON MLC_CLASS MLC_WIND MLC_PRES USA_GUST BOM_GUST BOM_GUST_PER REUNION_GUST REUNION_GUST_PER USA_SEAHGT USA_SEARAD_NE USA_SEARAD_SE USA_SEARAD_SW USA_SEARAD_NW STORM_SPEED STORM_DIR
1861011S17051 1861 1 SI MM NOT_NAMED 1861-01-11 06:00:00 NR -17.0000 50.6000 reunion main 88 85 _____O________ -1 -17.0000 50.6000 99 9.90000 1 0
1861011S17051 1861 1 SI MM NOT_NAMED 1861-01-11 09:00:00 NR -16.9312 50.5851 main 85 85 _____P________ -1 -16.9312 50.5851 99 1 358
1861011S17051 1861 1 SI MM NOT_NAMED 1861-01-11 12:00:00 NR -16.8750 50.5752 main 85 85 _____P________ -1 -16.8750 50.5752 99 1 352
1861011S17051 1861 1 SI MM NOT_NAMED 1861-01-11 15:00:00 NR -16.8437 50.5753 main 85 85 _____P________ -1 -16.8437 50.5753 99 0 0
1861011S17051 1861 1 SI MM NOT_NAMED 1861-01-11 18:00:00 NR -16.8500 50.5903 main 85 85 _____P________ -1 -16.8500 50.5903 99 1 156
1861011S17051 1861 1 SI MM NOT_NAMED 1861-01-11 21:00:00 NR -16.9062 50.6251 main 85 85 _____P________ -1 -16.9062 50.6251 99 2 152
1861011S17051 1861 1 SI MM NOT_NAMED 1861-01-12 00:00:00 NR -17.0250 50.6850 main 98 98 _____P________ -1 -17.0250 50.6850 99 3 156
1861011S17051 1861 1 SI MM NOT_NAMED 1861-01-12 03:00:00 NR -17.2188 50.7749 main 115 115 _____P________ -1 -17.2188 50.7749 99 5 157
1861011S17051 1861 1 SI MM NOT_NAMED 1861-01-12 06:00:00 NR -17.5000 50.9000 reunion main 140 140 _____O________ -1 -17.5000 50.9000 99 9.90000 7 157
1861011S17051 1861 1 SI MM NOT_NAMED 1861-01-12 09:00:00 NR -17.8763 51.0657 main 170 170 _____P________ -1 -17.8763 51.0657 99 9 157
1861011S17051 1861 1 SI MM NOT_NAMED 1861-01-12 12:00:00 NR -18.3357 51.2771 main 200 200 _____P________ -1 -18.3357 51.2771 99 11 155
1861011S17051 1861 1 SI MM NOT_NAMED 1861-01-12 15:00:00 NR -18.8615 51.5392 main 234 234 _____P________ -1 -18.8615 51.5392 99 12 153
1861011S17051 1861 1 SI MM NOT_NAMED 1861-01-12 18:00:00 NR -19.4371 51.8573 main 294 294 _____P________ -1 -19.4371 51.8573 99 14 151
1861011S17051 1861 1 SI MM NOT_NAMED 1861-01-12 21:00:00 NR -20.0456 52.2370 main 335 265 _____P________ -1 -20.0456 52.2370 99 15 148
1861011S17051 1861 1 SI MM NOT_NAMED 1861-01-13 00:00:00 NR -20.6701 52.6835 main 263 208 _____P________ -1 -20.6701 52.6835 99 15 144
1861011S17051 1861 1 SI MM NOT_NAMED 1861-01-13 03:00:00 NR -21.2939 53.2027 main 208 168 _____P________ -1 -21.2939 53.2027 99 16 140
1861011S17051 1861 1 SI MM NOT_NAMED 1861-01-13 06:00:00 NR -21.9000 53.8000 reunion main 168 145 _____O________ -1 -21.9000 53.8000 99 9.90000 16 134
1861011S17051 1861 1 SI MM NOT_NAMED 1861-01-13 09:00:00 NR -22.4324 54.4729 main 148 148 _____P________ -1 -22.4324 54.4729 99 17 129
1861011S17051 1861 1 SI MM NOT_NAMED 1861-01-13 12:00:00 NR -22.9562 55.2318 main 183 180 _____P________ -1 -22.9562 55.2318 99 18 125
1861011S17051 1861 1 SI MM NOT_NAMED 1861-01-13 15:00:00 NR -23.4691 56.0630 main 240 240 _____P________ -1 -23.4691 56.0630 99 19 123
1861011S17051 1861 1 SI MM NOT_NAMED 1861-01-13 18:00:00 NR -23.9687 56.9523 main 324 324 _____P________ -1 -23.9687 56.9523 99 19 121
1861011S17051 1861 1 SI MM NOT_NAMED 1861-01-13 21:00:00 NR -24.4530 57.8853 main 417 417 _____P________ -1 -24.4530 57.8853 99 20 119
1861011S17051 1861 1 SI MM NOT_NAMED 1861-01-14 00:00:00 NR -24.9205 58.8475 main 504 504 _____P________ -1 -24.9205 58.8475 99 20 118
1861011S17051 1861 1 SI MM NOT_NAMED 1861-01-14 03:00:00 NR -25.3698 59.8240 main 588 588 _____P________ -1 -25.3698 59.8240 99 20 116
1861011S17051 1861 1 SI MM NOT_NAMED 1861-01-14 06:00:00 NR -25.8000 60.8000 reunion main 671 671 _____O________ -1 -25.8000 60.8000 99 9.90000 19 116
1861011S17051 1861 1 SI MM NOT_NAMED 1861-01-14 09:00:00 NR -26.2148 61.7133 main 756 756 _____P________ -1 -26.2148 61.7133 99 18 116
1861011S17051 1861 1 SI MM NOT_NAMED 1861-01-14 12:00:00 NR -26.6106 62.6353 main 844 844 _____P________ -1 -26.6106 62.6353 99 18 115
1861011S17051 1861 1 SI MM NOT_NAMED 1861-01-14 15:00:00 NR -26.9895 63.5650 main 941 941 _____P________ -1 -26.9895 63.5650 99 18 114
1861011S17051 1861 1 SI MM NOT_NAMED 1861-01-14 18:00:00 NR -27.3533 64.5016 main 1034 1034 _____P________ -1 -27.3533 64.5016 99 18 113
1861011S17051 1861 1 SI MM NOT_NAMED 1861-01-14 21:00:00 NR -27.7042 65.4441 main 1120 1120 _____P________ -1 -27.7042 65.4441 99 18 112
1861011S17051 1861 1 SI MM NOT_NAMED 1861-01-15 00:00:00 NR -28.0443 66.3919 main 1215 1215 _____P________ -1 -28.0443 66.3919 99 18 112
1861011S17051 1861 1 SI MM NOT_NAMED 1861-01-15 03:00:00 NR -28.3755 67.3441 main 1311 1311 _____P________ -1 -28.3755 67.3441 99 18 111
1861011S17051 1861 1 SI MM NOT_NAMED 1861-01-15 06:00:00 NR -28.7000 68.3000 reunion main 1408 1408 _____O________ -1 -28.7000 68.3000 99 9.90000 19 111
1861011S17051 1861 1 SI MM NOT_NAMED 1861-01-15 09:00:00 NR -29.0672 69.3789 main 1520 1520 _____P________ -1 -29.0672 69.3789 99 20 111
1861011S17051 1861 1 SI MM NOT_NAMED 1861-01-15 12:00:00 NR -29.4293 70.4795 main 1626 1626 _____P________ -1 -29.4293 70.4795 99 20 110
1861011S17051 1861 1 SI MM NOT_NAMED 1861-01-15 15:00:00 NR -29.7783 71.5772 main 1739 1739 _____P________ -1 -29.7783 71.5772 99 20 110
1861011S17051 1861 1 SI MM NOT_NAMED 1861-01-15 18:00:00 NR -30.1070 72.6464 main 1838 1838 _____P________ -1 -30.1070 72.6464 99 19 109
1861011S17051 1861 1 SI MM NOT_NAMED 1861-01-15 21:00:00 NR -30.4090 73.6605 main 1945 1945 _____P________ -1 -30.4090 73.6605 99 18 109
1861011S17051 1861 1 SI MM NOT_NAMED 1861-01-16 00:00:00 NR -30.6784 74.5925 main 2036 2036 _____P________ -1 -30.6784 74.5925 99 16 108
1861011S17051 1861 1 SI MM NOT_NAMED 1861-01-16 03:00:00 NR -30.9103 75.4150 main 2063 2053 _____P________ -1 -30.9103 75.4150 99 14 108
1861011S17051 1861 1 SI MM NOT_NAMED 1861-01-16 06:00:00 NR -31.1000 76.1000 reunion main 2057 2050 _____O________ -1 -31.1000 76.1000 99 9.90000 11 108
1861011S17051 1861 1 SI MM NOT_NAMED 1861-01-16 09:00:00 NR -31.2451 76.6278 main 2056 2047 _____P________ -1 -31.2451 76.6278 99 8 108
1861011S17051 1861 1 SI MM NOT_NAMED 1861-01-16 12:00:00 NR -31.3510 77.0101 main 2043 2043 _____P________ -1 -31.3510 77.0101 99 6 108
1861011S17051 1861 1 SI MM NOT_NAMED 1861-01-16 15:00:00 NR -31.4243 77.2673 main 2049 2041 _____P________ -1 -31.4243 77.2673 99 4 109
1861011S17051 1861 1 SI MM NOT_NAMED 1861-01-16 18:00:00 NR -31.4709 77.4197 main 2041 2041 _____P________ -1 -31.4709 77.4197 99 2 111
1861011S17051 1861 1 SI MM NOT_NAMED 1861-01-16 21:00:00 NR -31.4964 77.4883 main 2043 2043 _____P________ -1 -31.4964 77.4883 99 1 117
1861011S17051 1861 1 SI MM NOT_NAMED 1861-01-17 00:00:00 NR -31.5063 77.4939 main 2043 2043 _____P________ -1 -31.5063 77.4939 99 0 0
1861011S17051 1861 1 SI MM NOT_NAMED 1861-01-17 03:00:00 NR -31.5058 77.4575 main 2043 2041 _____P________ -1 -31.5058 77.4575 99 1 275
1861011S17051 1861 1 SI MM NOT_NAMED 1861-01-17 06:00:00 NR -31.5000 77.4000 reunion main 2041 _____O________ -1 -31.5000 77.4000 99 9.90000 1 276

About IBTrACS Database

This database is a web-friendly format of International Best Track Archive for Climate Stewardship (IBTrACS), a global best track data archive curated by NOAA dating back to 1842.

Updated: 2021-10-21